Time;durP1;ratioP1;P1;durP2;ratioP2;P2;SDS_P1;SDS_P2;PMS_P1;PMS_P2;Temp;Humidity;BMP_temperature;BMP_pressure;BME280_temperature;BME280_humidity;BME280_pressure;Samples;Min_cycle;Max_cycle;Signal;HPM_P1;HPM_P2
2022/01/27 00:01:54;;;;;;;12.63;9.00;;;2.60;99.90;;;;;;5006934;28;20457;-82
2022/01/27 00:04:49;;;;;;;25.10;9.97;;;2.70;99.90;;;;;;5018813;28;20819;-82
2022/01/27 00:07:34;;;;;;;17.20;8.90;;;2.70;99.90;;;;;;5018589;28;20932;-82
2022/01/27 00:10:29;;;;;;;21.48;12.55;;;2.70;99.90;;;;;;5018075;28;20417;-82
2022/01/27 00:13:16;;;;;;;12.93;8.63;;;2.70;99.90;;;;;;5004407;28;20189;-82
2022/01/27 00:16:19;;;;;;;13.47;7.33;;;2.70;99.90;;;;;;5027481;28;20398;-79
2022/01/27 00:19:03;;;;;;;23.13;10.40;;;2.60;99.90;;;;;;5028005;28;20902;-81
2022/01/27 00:21:48;;;;;;;11.10;7.63;;;2.60;99.90;;;;;;5026890;28;20496;-81
2022/01/27 00:24:33;;;;;;;16.07;10.37;;;2.70;99.90;;;;;;5025461;28;20439;-81
2022/01/27 00:27:18;;;;;;;10.20;7.00;;;2.70;99.90;;;;;;5026295;28;20400;-82
2022/01/27 00:30:05;;;;;;;13.87;7.30;;;2.70;99.90;;;;;;5026375;28;20391;-82
2022/01/27 00:32:50;;;;;;;12.53;7.30;;;2.70;99.90;;;;;;5027613;28;20414;-81
2022/01/27 00:35:35;;;;;;;12.23;8.47;;;2.70;99.90;;;;;;5028875;28;20369;-81
2022/01/27 00:38:19;;;;;;;10.90;6.30;;;2.60;99.90;;;;;;5028390;28;20451;-81
2022/01/27 00:41:04;;;;;;;13.73;7.40;;;2.60;99.90;;;;;;5029643;28;20488;-79
2022/01/27 00:43:50;;;;;;;11.77;6.40;;;2.30;99.90;;;;;;5031695;28;20391;-81
2022/01/27 00:46:36;;;;;;;13.97;8.13;;;2.40;99.90;;;;;;5030905;28;20436;-78
2022/01/27 00:49:21;;;;;;;18.73;8.50;;;2.50;99.90;;;;;;5017459;28;20391;-80
2022/01/27 00:52:10;;;;;;;10.43;6.07;;;2.50;99.90;;;;;;5030305;28;20457;-81
2022/01/27 00:54:55;;;;;;;14.57;6.87;;;2.50;99.90;;;;;;5024440;28;20409;-80
2022/01/27 00:58:00;;;;;;;15.20;6.63;;;2.40;99.90;;;;;;5002917;28;20469;-80
2022/01/27 01:00:48;;;;;;;12.70;6.13;;;2.50;99.90;;;;;;5009292;28;20451;-80
2022/01/27 01:03:38;;;;;;;6.30;5.20;;;2.50;99.90;;;;;;5006205;28;20370;-80
2022/01/27 01:06:33;;;;;;;18.40;6.70;;;2.40;99.90;;;;;;5027612;28;20415;-80
2022/01/27 01:15:24;;;;;;;13.53;8.17;;;2.50;99.90;;;;;;4979556;28;20456;-81
2022/01/27 01:18:26;;;;;;;13.67;8.20;;;2.50;99.90;;;;;;4980176;28;20486;-80
2022/01/27 01:21:26;;;;;;;10.60;9.33;;;2.60;99.90;;;;;;4979814;28;20751;-80
2022/01/27 01:29:27;;;;;;;17.50;8.53;;;2.50;99.90;;;;;;4979712;28;20384;-80
2022/01/27 01:30:34;;;;;;;12.63;6.30;;;2.50;99.90;;;;;;4979031;28;20383;-80
2022/01/27 01:33:23;;;;;;;9.07;7.00;;;2.20;99.90;;;;;;4979621;28;20504;-80
2022/01/27 01:39:04;;;;;;;11.90;8.40;;;2.40;99.90;;;;;;4979137;28;20360;-80
2022/01/27 01:41:49;;;;;;;11.13;6.63;;;1.90;99.90;;;;;;4979650;28;20783;-81
2022/01/27 01:44:33;;;;;;;11.97;9.00;;;1.90;99.90;;;;;;5019340;28;20411;-81
2022/01/27 01:47:20;;;;;;;14.83;8.13;;;1.80;99.90;;;;;;5020565;28;20410;-81
2022/01/27 01:50:06;;;;;;;12.90;6.57;;;2.10;99.90;;;;;;5020362;28;20684;-81
2022/01/27 01:52:52;;;;;;;19.07;10.27;;;2.30;99.90;;;;;;5020797;28;20433;-81
2022/01/27 01:55:36;;;;;;;14.27;7.57;;;2.40;99.90;;;;;;5020168;28;20408;-81
2022/01/27 01:58:21;;;;;;;13.17;7.20;;;2.10;99.90;;;;;;5020241;28;20379;-81
2022/01/27 02:01:05;;;;;;;15.13;9.03;;;2.40;99.90;;;;;;5005416;28;20446;-81
2022/01/27 02:03:50;;;;;;;11.30;6.80;;;2.10;99.90;;;;;;5020826;28;20362;-81
2022/01/27 02:06:50;;;;;;;10.17;7.23;;;2.30;99.90;;;;;;5020373;28;20535;-81
2022/01/27 02:10:09;;;;;;;13.53;9.60;;;2.10;99.90;;;;;;5006426;28;20362;-81
2022/01/27 02:18:40;;;;;;;13.63;8.57;;;2.30;99.90;;;;;;5023172;28;20441;-78
2022/01/27 02:21:25;;;;;;;9.63;6.30;;;2.40;99.90;;;;;;5020240;28;20472;-80
2022/01/27 02:24:09;;;;;;;11.63;7.53;;;2.40;99.90;;;;;;5019396;28;20450;-80
2022/01/27 02:26:55;;;;;;;9.30;6.33;;;2.40;99.90;;;;;;5019993;28;20796;-81
2022/01/27 02:29:40;;;;;;;17.00;11.95;;;2.20;99.90;;;;;;5037411;28;20428;-81
2022/01/27 02:32:25;;;;;;;21.57;10.67;;;1.80;99.90;;;;;;5023374;28;20196;-80
2022/01/27 02:35:10;;;;;;;15.23;8.50;;;2.10;99.90;;;;;;5030204;28;20403;-80
2022/01/27 02:37:55;;;;;;;14.20;8.53;;;2.20;99.90;;;;;;5034900;28;20395;-81
2022/01/27 02:40:48;;;;;;;12.17;8.30;;;1.80;99.90;;;;;;5036261;28;20432;-82
2022/01/27 02:43:32;;;;;;;11.60;6.80;;;2.00;99.90;;;;;;5001134;28;20386;-81
2022/01/27 02:46:24;;;;;;;16.20;8.80;;;1.50;99.90;;;;;;5025843;28;20378;-81
2022/01/27 02:49:09;;;;;;;11.97;8.83;;;1.40;99.90;;;;;;5021055;28;20398;-81
2022/01/27 02:51:53;;;;;;;13.77;9.20;;;1.60;99.90;;;;;;5020265;28;20435;-81
2022/01/27 02:54:38;;;;;;;11.57;7.50;;;1.90;99.90;;;;;;5020236;28;20362;-81
2022/01/27 02:57:24;;;;;;;16.13;8.53;;;1.80;99.90;;;;;;5020278;28;20355;-81
2022/01/27 03:00:09;;;;;;;14.07;10.00;;;2.00;99.90;;;;;;5020576;28;20387;-81
2022/01/27 03:02:54;;;;;;;15.87;10.57;;;1.90;99.90;;;;;;4998200;28;20441;-81
2022/01/27 03:05:39;;;;;;;12.80;8.97;;;1.70;99.90;;;;;;5005113;28;20394;-80
2022/01/27 03:08:23;;;;;;;16.50;9.10;;;1.90;99.90;;;;;;5019457;28;20944;-80
2022/01/27 03:11:15;;;;;;;10.80;7.87;;;2.00;99.90;;;;;;5019132;28;20453;-80
2022/01/27 03:14:00;;;;;;;13.73;9.33;;;2.20;99.90;;;;;;5018861;28;20858;-80
2022/01/27 03:16:45;;;;;;;15.87;8.77;;;2.00;99.90;;;;;;5004790;28;20826;-81
2022/01/27 03:19:29;;;;;;;19.63;8.97;;;2.20;99.90;;;;;;5019862;28;20366;-80
2022/01/27 03:22:14;;;;;;;16.80;8.30;;;2.20;99.90;;;;;;5004260;28;20756;-80
2022/01/27 03:24:58;;;;;;;18.77;9.80;;;2.30;99.90;;;;;;5019365;28;20366;-80
2022/01/27 03:27:46;;;;;;;15.87;8.17;;;2.40;99.90;;;;;;5004825;28;20410;-80
2022/01/27 03:30:31;;;;;;;19.70;9.87;;;1.60;99.90;;;;;;5019878;28;20411;-80
2022/01/27 03:33:16;;;;;;;16.00;9.70;;;1.40;99.90;;;;;;5019493;28;20454;-81
2022/01/27 03:36:02;;;;;;;15.40;10.30;;;1.60;99.90;;;;;;5003709;28;20512;-80
2022/01/27 03:38:47;;;;;;;27.27;10.47;;;1.80;99.90;;;;;;5011048;28;20400;-81
2022/01/27 03:41:34;;;;;;;16.50;10.20;;;1.90;99.90;;;;;;5003650;28;20387;-80
2022/01/27 03:44:19;;;;;;;14.47;9.03;;;2.00;99.90;;;;;;5003991;28;20693;-80
2022/01/27 03:47:04;;;;;;;16.30;9.93;;;1.90;99.90;;;;;;5013831;28;20365;-80
2022/01/27 03:49:49;;;;;;;19.40;11.60;;;1.90;99.90;;;;;;5003716;28;20366;-81
2022/01/27 03:52:34;;;;;;;12.63;8.53;;;2.00;99.90;;;;;;5019122;28;20443;-81
2022/01/27 03:55:18;;;;;;;18.47;9.83;;;1.60;99.90;;;;;;5018157;28;20434;-81
2022/01/27 03:58:02;;;;;;;17.87;11.70;;;1.70;99.90;;;;;;5018323;28;20771;-81
2022/01/27 04:00:47;;;;;;;12.17;8.03;;;1.70;99.90;;;;;;5018063;28;20446;-80
2022/01/27 04:03:36;;;;;;;21.40;14.07;;;1.70;99.90;;;;;;5030348;28;20419;-80
2022/01/27 04:06:31;;;;;;;23.47;9.17;;;1.70;99.90;;;;;;5009116;28;20369;-81
2022/01/27 04:09:15;;;;;;;18.90;9.93;;;1.70;99.90;;;;;;5004129;28;20370;-81
2022/01/27 04:11:59;;;;;;;15.57;9.57;;;2.00;99.90;;;;;;5016754;28;20468;-80
2022/01/27 04:14:44;;;;;;;16.37;10.73;;;1.90;99.90;;;;;;5017590;28;20435;-80
2022/01/27 04:17:28;;;;;;;17.73;9.00;;;1.30;99.90;;;;;;4990173;28;20376;-80
2022/01/27 04:20:14;;;;;;;18.63;9.30;;;1.10;99.90;;;;;;5019058;28;20378;-80
2022/01/27 04:22:59;;;;;;;14.80;10.10;;;1.10;99.90;;;;;;5017799;28;21014;-80
2022/01/27 04:25:45;;;;;;;14.30;9.37;;;1.10;99.90;;;;;;5017758;28;20399;-81
2022/01/27 04:28:33;;;;;;;13.63;6.93;;;1.00;99.90;;;;;;5002797;28;20407;-80
2022/01/27 04:31:19;;;;;;;13.60;7.97;;;1.40;99.90;;;;;;5018157;28;20380;-81
2022/01/27 04:34:05;;;;;;;15.30;9.77;;;1.00;99.90;;;;;;4989872;28;20959;-80
2022/01/27 04:36:49;;;;;;;27.30;13.27;;;1.10;99.90;;;;;;5037868;28;20385;-80
2022/01/27 04:39:41;;;;;;;11.80;7.67;;;1.00;99.90;;;;;;5022022;28;20415;-80
2022/01/27 04:42:40;;;;;;;10.87;8.23;;;0.80;99.90;;;;;;5036100;28;20409;-80
2022/01/27 04:45:36;;;;;;;15.77;9.30;;;0.90;99.90;;;;;;5035777;28;20447;-79
2022/01/27 04:48:23;;;;;;;19.63;9.20;;;1.20;99.90;;;;;;5036582;28;20418;-80
2022/01/27 04:51:10;;;;;;;16.43;10.00;;;1.40;99.90;;;;;;5036856;28;20397;-80
2022/01/27 04:54:02;;;;;;;20.80;9.30;;;1.60;99.90;;;;;;5003579;28;20425;-80
2022/01/27 04:56:46;;;;;;;20.93;10.80;;;1.80;99.90;;;;;;5021275;28;20811;-80
2022/01/27 04:59:37;;;;;;;15.70;9.07;;;1.40;99.90;;;;;;5021718;28;20379;-80
2022/01/27 05:02:36;;;;;;;14.70;10.80;;;1.60;99.90;;;;;;5022057;28;20425;-80
2022/01/27 05:05:22;;;;;;;18.80;8.40;;;1.60;99.90;;;;;;5022655;28;20378;-79
2022/01/27 05:08:10;;;;;;;15.93;8.90;;;1.50;99.90;;;;;;5022157;28;20475;-80
2022/01/27 05:13:57;;;;;;;15.17;8.63;;;1.60;99.90;;;;;;5013430;28;20473;-80
2022/01/27 05:16:43;;;;;;;16.40;10.50;;;1.20;99.90;;;;;;5021550;28;20375;-80
2022/01/27 05:19:49;;;;;;;11.90;8.00;;;1.20;99.90;;;;;;5021536;28;20863;-80
2022/01/27 05:22:34;;;;;;;16.73;7.57;;;1.30;99.90;;;;;;4962737;28;20515;-80
2022/01/27 05:25:19;;;;;;;14.70;8.13;;;1.20;99.90;;;;;;4961515;28;20373;-80
2022/01/27 05:28:04;;;;;;;14.17;8.40;;;1.10;99.90;;;;;;4961328;29;20390;-80
2022/01/27 05:30:49;;;;;;;16.97;7.73;;;1.40;99.90;;;;;;4952881;29;20437;-80
2022/01/27 05:33:33;;;;;;;12.03;6.83;;;1.20;99.90;;;;;;4959578;29;20446;-81
2022/01/27 05:36:18;;;;;;;21.40;8.67;;;1.00;99.90;;;;;;4960209;29;20845;-80
2022/01/27 05:39:04;;;;;;;20.03;6.30;;;1.10;99.90;;;;;;4960199;29;20760;-80
2022/01/27 05:41:48;;;;;;;11.67;9.20;;;1.40;99.90;;;;;;4946686;29;20495;-80
2022/01/27 05:44:33;;;;;;;16.93;9.33;;;1.50;99.90;;;;;;4959901;28;20526;-80
2022/01/27 05:47:17;;;;;;;11.80;9.37;;;1.20;99.90;;;;;;4960045;28;20539;-80
2022/01/27 05:50:04;;;;;;;14.10;9.57;;;1.30;99.90;;;;;;4959783;29;20391;-80
2022/01/27 05:52:48;;;;;;;12.67;8.40;;;1.30;99.90;;;;;;4965818;28;20971;-80
2022/01/27 05:55:33;;;;;;;18.67;6.07;;;1.40;99.90;;;;;;5005323;28;20413;-82
2022/01/27 05:58:19;;;;;;;12.03;8.27;;;1.40;99.90;;;;;;5020717;28;20382;-82
2022/01/27 06:01:03;;;;;;;9.87;7.97;;;1.40;99.90;;;;;;5005761;28;20442;-81
2022/01/27 06:03:48;;;;;;;17.60;9.87;;;1.30;99.90;;;;;;5005404;28;20378;-82
2022/01/27 06:06:33;;;;;;;17.90;10.00;;;1.50;99.90;;;;;;5005793;28;20436;-82
2022/01/27 06:09:18;;;;;;;13.60;8.43;;;1.50;99.90;;;;;;5021153;28;20870;-82
2022/01/27 06:12:02;;;;;;;13.90;5.80;;;1.50;99.90;;;;;;5021002;28;20373;-82
2022/01/27 06:14:47;;;;;;;10.53;7.63;;;1.50;99.90;;;;;;5005019;28;20437;-82
2022/01/27 06:17:31;;;;;;;18.83;7.80;;;1.40;99.90;;;;;;5005640;28;20405;-82
2022/01/27 06:20:17;;;;;;;11.77;6.57;;;1.50;99.90;;;;;;5005810;28;20391;-82
2022/01/27 06:23:02;;;;;;;16.23;10.47;;;1.10;99.90;;;;;;5020697;28;20419;-82
2022/01/27 06:25:47;;;;;;;13.10;9.40;;;1.20;99.90;;;;;;4999573;28;20412;-82
2022/01/27 06:28:31;;;;;;;17.53;9.57;;;0.80;99.90;;;;;;5003558;28;20355;-81
2022/01/27 06:31:16;;;;;;;9.47;6.70;;;0.80;99.90;;;;;;4998621;28;20403;-81
2022/01/27 06:34:00;;;;;;;18.03;7.23;;;1.10;99.90;;;;;;4984806;28;20438;-81
2022/01/27 06:36:45;;;;;;;12.70;8.57;;;1.00;99.90;;;;;;4983996;28;21061;-82
2022/01/27 06:39:29;;;;;;;11.17;7.20;;;0.90;99.90;;;;;;4985692;28;20431;-82
2022/01/27 06:42:14;;;;;;;8.27;6.20;;;0.90;99.90;;;;;;4995698;28;20439;-82
2022/01/27 06:44:58;;;;;;;14.20;6.33;;;0.60;99.90;;;;;;4979958;28;20448;-82
2022/01/27 06:47:43;;;;;;;8.57;6.30;;;0.80;99.90;;;;;;4984293;28;20474;-81
2022/01/27 06:50:31;;;;;;;12.87;7.50;;;1.00;99.90;;;;;;5008356;28;20444;-81
2022/01/27 06:53:15;;;;;;;19.00;7.53;;;1.00;99.90;;;;;;5009765;28;20604;-81
2022/01/27 06:56:01;;;;;;;15.07;8.30;;;1.20;99.90;;;;;;5012946;28;20410;-81
2022/01/27 06:58:45;;;;;;;13.67;7.10;;;1.20;99.90;;;;;;5007642;28;20436;-81
2022/01/27 07:01:30;;;;;;;14.10;6.60;;;1.20;99.90;;;;;;5019888;28;20514;-81
2022/01/27 07:04:15;;;;;;;18.50;8.47;;;1.10;99.90;;;;;;5008789;28;20475;-81
2022/01/27 07:06:59;;;;;;;17.27;8.23;;;1.20;99.90;;;;;;5011796;28;20508;-81
2022/01/27 07:09:44;;;;;;;15.63;8.87;;;1.10;99.90;;;;;;5015173;28;20935;-81
2022/01/27 07:12:28;;;;;;;20.60;9.27;;;1.20;99.90;;;;;;5012819;28;20462;-81
2022/01/27 07:15:13;;;;;;;21.83;8.33;;;1.30;99.90;;;;;;4995535;28;20432;-80
2022/01/27 07:17:57;;;;;;;15.20;6.87;;;1.00;99.90;;;;;;5009521;28;20411;-80
2022/01/27 07:20:42;;;;;;;10.67;7.40;;;1.20;99.90;;;;;;5013784;28;20419;-81
2022/01/27 07:23:28;;;;;;;9.20;7.83;;;1.00;99.90;;;;;;5010070;28;20457;-81
2022/01/27 07:26:13;;;;;;;13.00;6.63;;;1.00;99.90;;;;;;5008908;28;20486;-81
2022/01/27 07:28:58;;;;;;;23.30;9.47;;;1.10;99.90;;;;;;5015235;28;20516;-81
2022/01/27 07:31:42;;;;;;;10.60;6.80;;;1.20;99.90;;;;;;5008817;28;20450;-80
2022/01/27 07:34:27;;;;;;;21.50;8.07;;;0.90;99.90;;;;;;5000450;28;20506;-82
2022/01/27 07:37:11;;;;;;;13.93;6.87;;;0.80;99.90;;;;;;4999096;28;20850;-82
2022/01/27 07:39:56;;;;;;;7.67;5.30;;;1.10;99.90;;;;;;5016067;28;20602;-81
2022/01/27 07:42:41;;;;;;;17.33;8.93;;;0.90;99.90;;;;;;4996022;28;20434;-81
2022/01/27 07:45:25;;;;;;;23.20;8.30;;;1.10;99.90;;;;;;4988132;28;20487;-82
2022/01/27 07:48:10;;;;;;;12.27;6.97;;;1.10;99.90;;;;;;5002076;28;20445;-82
2022/01/27 07:50:55;;;;;;;10.07;7.13;;;0.80;99.90;;;;;;5012259;28;20410;-82
2022/01/27 07:53:42;;;;;;;18.43;8.97;;;1.00;99.90;;;;;;5000824;28;20462;-82
2022/01/27 07:56:27;;;;;;;11.93;7.97;;;0.90;99.90;;;;;;4997732;28;21100;-81
2022/01/27 07:59:12;;;;;;;15.97;7.73;;;1.10;99.90;;;;;;5001353;28;20521;-82
2022/01/27 08:01:58;;;;;;;13.30;9.73;;;1.30;99.90;;;;;;5008985;28;20917;-80
2022/01/27 08:04:43;;;;;;;16.50;8.63;;;1.40;99.90;;;;;;5013061;28;20443;-82
2022/01/27 08:07:27;;;;;;;18.37;9.70;;;1.40;99.90;;;;;;5010524;28;20912;-82
2022/01/27 08:10:12;;;;;;;14.50;9.10;;;1.40;99.90;;;;;;4995407;28;20507;-82
2022/01/27 08:12:56;;;;;;;9.37;6.67;;;0.80;99.90;;;;;;5010621;28;20586;-80
2022/01/27 08:15:41;;;;;;;10.43;8.13;;;0.80;99.90;;;;;;5009024;28;20438;-81
2022/01/27 08:18:25;;;;;;;12.90;8.40;;;1.00;99.90;;;;;;4991392;28;20433;-82
2022/01/27 08:21:10;;;;;;;12.53;9.93;;;1.20;99.90;;;;;;5007756;28;21005;-82
2022/01/27 08:23:56;;;;;;;19.73;7.97;;;1.00;99.90;;;;;;5003905;28;20795;-82
2022/01/27 08:26:44;;;;;;;20.93;9.83;;;1.00;99.90;;;;;;4995538;28;20774;-80
2022/01/27 08:29:36;;;;;;;17.00;10.50;;;1.10;99.90;;;;;;5009897;28;20419;-82
2022/01/27 08:32:30;;;;;;;15.67;9.63;;;1.40;99.90;;;;;;5002690;28;20443;-81
2022/01/27 08:35:17;;;;;;;23.57;10.73;;;1.10;99.90;;;;;;4987201;28;20440;-82
2022/01/27 08:38:02;;;;;;;11.10;7.93;;;1.20;99.90;;;;;;5011526;28;20402;-83
2022/01/27 08:40:47;;;;;;;16.57;9.80;;;1.40;99.90;;;;;;5013618;28;20424;-82
2022/01/27 08:43:33;;;;;;;20.83;8.63;;;1.40;99.90;;;;;;4987702;28;20790;-82
2022/01/27 08:46:17;;;;;;;18.63;9.23;;;1.50;99.90;;;;;;5013733;28;20903;-82
2022/01/27 08:49:02;;;;;;;23.80;10.77;;;1.60;99.90;;;;;;5014521;28;20991;-82
2022/01/27 08:51:47;;;;;;;18.53;11.00;;;1.70;99.90;;;;;;5018572;28;20822;-82
2022/01/27 08:54:33;;;;;;;13.60;8.43;;;1.60;99.90;;;;;;5007693;28;21846;-82
2022/01/27 08:57:18;;;;;;;20.93;9.13;;;1.60;99.90;;;;;;5009778;28;20470;-82
2022/01/27 09:00:06;;;;;;;21.30;9.80;;;1.60;99.90;;;;;;5007753;28;20414;-81
2022/01/27 09:02:50;;;;;;;16.10;7.83;;;1.60;99.90;;;;;;5007867;28;20444;-82
2022/01/27 09:05:36;;;;;;;25.00;10.77;;;1.70;99.90;;;;;;4992579;28;20426;-82
2022/01/27 09:08:20;;;;;;;23.17;11.53;;;1.70;99.90;;;;;;5010166;28;20434;-82
2022/01/27 09:11:05;;;;;;;15.57;8.73;;;1.50;99.90;;;;;;5008103;28;20512;-82
2022/01/27 09:13:52;;;;;;;9.73;8.23;;;1.60;99.90;;;;;;5012467;28;20437;-81
2022/01/27 09:16:37;;;;;;;10.40;8.33;;;1.80;99.90;;;;;;4986296;28;20463;-81
2022/01/27 09:19:22;;;;;;;12.97;8.50;;;1.70;99.90;;;;;;5013873;28;20414;-82
2022/01/27 09:22:12;;;;;;;16.23;8.50;;;1.40;99.90;;;;;;5021424;28;20918;-82
2022/01/27 09:25:04;;;;;;;14.93;8.00;;;1.50;99.90;;;;;;5017183;28;20407;-81
2022/01/27 09:27:49;;;;;;;14.80;10.10;;;1.80;99.90;;;;;;5006956;28;20421;-82
2022/01/27 09:30:34;;;;;;;21.73;9.03;;;1.50;99.90;;;;;;5002833;28;20485;-82
2022/01/27 09:33:19;;;;;;;9.50;6.00;;;1.40;99.90;;;;;;5006340;28;20466;-81
2022/01/27 09:36:11;;;;;;;13.50;7.13;;;1.60;99.90;;;;;;5005637;28;20433;-80
2022/01/27 09:38:55;;;;;;;18.13;8.43;;;1.70;99.90;;;;;;5000900;28;20486;-80
2022/01/27 09:41:41;;;;;;;14.90;8.53;;;1.30;99.90;;;;;;5002678;28;20393;-81
2022/01/27 09:44:29;;;;;;;15.53;9.87;;;1.30;99.90;;;;;;5021121;28;20868;-81
2022/01/27 09:47:16;;;;;;;13.27;7.70;;;1.20;99.90;;;;;;5010674;28;20906;-81
2022/01/27 09:50:26;;;;;;;15.40;9.50;;;1.30;99.90;;;;;;5023645;28;20460;-81
2022/01/27 09:53:05;;;;;;;29.43;11.47;;;1.60;99.90;;;;;;5024526;28;20506;-79
2022/01/27 09:55:50;;;;;;;12.20;8.97;;;1.40;99.90;;;;;;5024649;28;20976;-79
2022/01/27 09:58:34;;;;;;;14.27;9.37;;;1.50;99.90;;;;;;5025155;28;20875;-81
2022/01/27 10:01:19;;;;;;;7.70;4.63;;;1.50;99.90;;;;;;5022927;28;20498;-82
2022/01/27 10:04:06;;;;;;;4.73;3.57;;;1.00;99.90;;;;;;5022837;28;20439;-80
2022/01/27 10:06:57;;;;;;;12.13;8.23;;;1.00;99.90;;;;;;5014706;28;20432;-80
2022/01/27 10:10:02;;;;;;;12.40;6.70;;;0.80;99.90;;;;;;5011260;28;20437;-81
2022/01/27 10:12:50;;;;;;;8.77;7.70;;;0.90;99.90;;;;;;5014112;28;20440;-79
2022/01/27 10:15:38;;;;;;;10.17;8.67;;;0.80;99.90;;;;;;5013985;28;20476;-80
2022/01/27 10:18:44;;;;;;;8.70;7.17;;;0.90;99.90;;;;;;5023074;28;20411;-82
2022/01/27 10:21:33;;;;;;;14.67;9.07;;;1.30;99.90;;;;;;4983299;28;20423;-82
2022/01/27 10:24:25;;;;;;;9.53;7.23;;;1.60;99.90;;;;;;4985207;28;20396;-81
2022/01/27 10:27:33;;;;;;;7.50;4.60;;;1.20;99.90;;;;;;4972266;28;20407;-81
2022/01/27 10:33:22;;;;;;;11.43;7.67;;;1.10;99.90;;;;;;4970380;28;20427;-82
2022/01/27 10:36:23;;;;;;;12.73;7.30;;;1.10;99.90;;;;;;4978713;28;20396;-80
2022/01/27 10:39:10;;;;;;;11.17;6.17;;;1.00;99.90;;;;;;4969798;28;20376;-82
2022/01/27 10:42:05;;;;;;;7.33;6.47;;;1.00;99.90;;;;;;4977175;28;20518;-79
2022/01/27 10:44:57;;;;;;;9.97;6.77;;;0.80;99.90;;;;;;4954891;28;20432;-81
2022/01/27 10:47:45;;;;;;;16.90;8.57;;;1.00;99.90;;;;;;4977333;28;20447;-81
2022/01/27 10:50:31;;;;;;;16.60;9.60;;;1.00;99.90;;;;;;4949403;28;20428;-82
2022/01/27 10:53:15;;;;;;;15.87;12.07;;;1.00;99.90;;;;;;5012657;28;20599;-81
2022/01/27 10:56:05;;;;;;;7.03;5.00;;;1.00;99.90;;;;;;4999961;28;20398;-82
2022/01/27 10:58:50;;;;;;;7.50;6.80;;;1.00;99.90;;;;;;5012314;28;20393;-83
2022/01/27 11:01:42;;;;;;;13.43;8.73;;;0.90;99.90;;;;;;4999940;28;20897;-83
2022/01/27 11:04:34;;;;;;;14.60;7.37;;;1.00;99.90;;;;;;5011568;28;20507;-82
2022/01/27 11:07:24;;;;;;;11.60;6.60;;;0.90;99.90;;;;;;5015285;28;20393;-82
2022/01/27 11:10:09;;;;;;;16.53;9.60;;;1.20;99.90;;;;;;4998545;28;20406;-82
2022/01/27 11:12:53;;;;;;;8.77;5.40;;;1.20;99.90;;;;;;4990938;28;20470;-82
2022/01/27 11:15:41;;;;;;;15.27;7.00;;;1.00;99.90;;;;;;5000636;28;20793;-80
2022/01/27 11:18:28;;;;;;;11.07;8.30;;;0.90;99.90;;;;;;5000302;28;20887;-81
2022/01/27 11:21:29;;;;;;;9.50;7.47;;;1.10;99.90;;;;;;5000349;28;20548;-81
2022/01/27 11:27:14;;;;;;;16.30;8.20;;;1.20;99.90;;;;;;5013356;28;20475;-79
2022/01/27 11:30:11;;;;;;;11.60;8.77;;;0.90;99.90;;;;;;5015736;28;20430;-82
2022/01/27 11:33:03;;;;;;;8.50;5.50;;;1.20;99.90;;;;;;5028819;28;20454;-81
2022/01/27 11:36:09;;;;;;;8.40;5.83;;;1.00;99.90;;;;;;5012886;28;20439;-80
2022/01/27 11:38:53;;;;;;;10.03;6.80;;;1.00;99.90;;;;;;5027240;28;20442;-82
2022/01/27 11:41:43;;;;;;;10.63;7.93;;;1.20;99.90;;;;;;5017636;28;20419;-81
2022/01/27 11:44:33;;;;;;;17.57;9.57;;;1.40;99.90;;;;;;5017129;28;20781;-83
2022/01/27 11:47:19;;;;;;;14.27;8.40;;;1.30;99.90;;;;;;5017964;28;20398;-82
2022/01/27 11:50:08;;;;;;;14.97;6.77;;;1.40;99.90;;;;;;5011767;28;20904;-82
2022/01/27 11:52:56;;;;;;;13.53;7.67;;;1.30;99.90;;;;;;5016615;28;20530;-82
2022/01/27 11:55:44;;;;;;;18.10;8.10;;;1.30;99.90;;;;;;5019313;28;20470;-83
2022/01/27 11:58:29;;;;;;;19.10;8.90;;;1.60;99.90;;;;;;5016968;28;20398;-82
2022/01/27 12:01:27;;;;;;;5.40;4.17;;;1.50;99.90;;;;;;5012452;28;20507;-82
2022/01/27 12:04:16;;;;;;;13.30;6.97;;;1.50;99.90;;;;;;4995190;28;20443;-81
2022/01/27 12:07:05;;;;;;;21.70;6.77;;;1.60;99.90;;;;;;5010511;28;20870;-81
2022/01/27 12:09:53;;;;;;;14.43;6.37;;;1.50;99.90;;;;;;5001302;28;20470;-82
2022/01/27 12:12:58;;;;;;;8.43;5.33;;;1.60;99.90;;;;;;5012794;28;20482;-81
2022/01/27 12:16:10;;;;;;;10.67;6.70;;;1.60;99.90;;;;;;4943511;28;20448;-82
2022/01/27 12:19:10;;;;;;;12.87;6.90;;;1.50;99.90;;;;;;4967746;28;20428;-82
2022/01/27 12:22:00;;;;;;;10.67;5.83;;;1.60;99.90;;;;;;4970309;28;20547;-82
2022/01/27 12:24:55;;;;;;;6.77;4.33;;;1.70;99.90;;;;;;4959804;28;20436;-82
2022/01/27 12:28:03;;;;;;;8.77;5.93;;;1.60;99.90;;;;;;4966594;28;20432;-82
2022/01/27 12:30:56;;;;;;;9.77;6.13;;;1.40;99.90;;;;;;4932793;29;20471;-82
2022/01/27 12:33:45;;;;;;;9.23;4.67;;;1.40;99.90;;;;;;4932152;29;20458;-82
2022/01/27 12:36:31;;;;;;;8.93;5.40;;;1.50;99.90;;;;;;4924230;29;20410;-80
2022/01/27 12:39:20;;;;;;;12.57;8.10;;;1.30;99.90;;;;;;4946066;29;20557;-81
2022/01/27 12:42:08;;;;;;;9.87;5.67;;;1.40;99.90;;;;;;4952108;29;20467;-81
2022/01/27 12:44:57;;;;;;;6.33;5.40;;;1.30;99.90;;;;;;4953381;28;20429;-79
2022/01/27 12:47:44;;;;;;;5.80;3.90;;;1.60;99.90;;;;;;4985975;28;20438;-81
2022/01/27 12:50:29;;;;;;;8.03;4.70;;;1.40;99.90;;;;;;4983360;28;20465;-81
2022/01/27 12:53:16;;;;;;;6.90;5.17;;;1.40;99.90;;;;;;4959171;28;20478;-81
2022/01/27 12:56:08;;;;;;;14.70;6.03;;;1.40;99.90;;;;;;4979317;28;20506;-80
2022/01/27 12:58:53;;;;;;;11.17;6.33;;;1.70;99.90;;;;;;4980421;28;20532;-80
2022/01/27 13:01:39;;;;;;;9.03;5.33;;;1.60;99.90;;;;;;4990671;28;20482;-81
2022/01/27 13:04:25;;;;;;;8.20;4.50;;;1.50;99.90;;;;;;5019837;28;20457;-80
2022/01/27 13:07:09;;;;;;;7.00;4.93;;;1.50;99.90;;;;;;5032896;28;20393;-80
2022/01/27 13:10:02;;;;;;;5.73;4.97;;;1.40;99.90;;;;;;5032709;28;20450;-80
2022/01/27 13:12:54;;;;;;;5.43;4.63;;;1.30;99.90;;;;;;5022358;28;20435;-81
2022/01/27 13:15:38;;;;;;;8.20;5.13;;;1.60;99.90;;;;;;5031273;28;20422;-82
2022/01/27 13:18:30;;;;;;;5.60;4.90;;;1.60;99.90;;;;;;5026704;28;20401;-82
2022/01/27 13:21:22;;;;;;;5.20;3.33;;;1.40;99.90;;;;;;5027637;28;20431;-83
2022/01/27 13:24:15;;;;;;;10.17;5.67;;;1.40;99.90;;;;;;5025194;28;20748;-83
2022/01/27 13:27:08;;;;;;;9.60;5.80;;;1.50;99.90;;;;;;5006249;28;20440;-82
2022/01/27 13:29:58;;;;;;;8.83;4.80;;;1.20;99.90;;;;;;5001422;28;20909;-81
2022/01/27 13:32:42;;;;;;;12.17;5.37;;;1.40;99.90;;;;;;5012837;28;20461;-81
2022/01/27 13:35:27;;;;;;;7.20;6.13;;;1.60;99.90;;;;;;5019307;28;20803;-82
2022/01/27 13:38:20;;;;;;;7.63;5.20;;;1.60;99.90;;;;;;5006991;28;20453;-81
2022/01/27 13:44:08;;;;;;;11.50;5.00;;;1.60;99.90;;;;;;5003675;28;20447;-81
2022/01/27 13:46:59;;;;;;;9.67;4.97;;;1.50;99.90;;;;;;4959444;28;20449;-81
2022/01/27 13:49:43;;;;;;;9.53;5.97;;;1.60;99.90;;;;;;4952391;28;20478;-81
2022/01/27 13:52:41;;;;;;;9.70;5.13;;;1.80;99.90;;;;;;4960486;28;20445;-81
2022/01/27 13:55:27;;;;;;;9.00;6.13;;;1.70;99.90;;;;;;4964668;28;20451;-81
2022/01/27 13:58:22;;;;;;;5.63;4.80;;;1.50;99.90;;;;;;4949312;29;20388;-80
2022/01/27 14:01:13;;;;;;;7.20;5.43;;;1.50;99.90;;;;;;4957424;28;20978;-82
2022/01/27 14:03:57;;;;;;;5.70;4.33;;;1.60;99.90;;;;;;4962102;28;20950;-82
2022/01/27 14:06:56;;;;;;;6.57;5.97;;;1.80;99.90;;;;;;4934453;29;20429;-81
2022/01/27 14:09:41;;;;;;;6.20;5.43;;;1.70;99.90;;;;;;4946713;28;20478;-82
2022/01/27 14:12:31;;;;;;;8.87;4.43;;;1.70;99.90;;;;;;4959428;28;20440;-82
2022/01/27 14:15:37;;;;;;;11.00;5.03;;;1.80;99.90;;;;;;4909095;29;20489;-82
2022/01/27 14:18:24;;;;;;;8.27;5.60;;;1.70;99.90;;;;;;5009306;28;20451;-82
2022/01/27 14:21:10;;;;;;;12.57;7.93;;;2.10;99.90;;;;;;5019001;28;20386;-81
2022/01/27 14:24:21;;;;;;;6.77;5.90;;;2.00;99.90;;;;;;5006458;28;20413;-82
2022/01/27 14:27:07;;;;;;;11.00;4.90;;;2.00;99.90;;;;;;5020788;28;20443;-82
2022/01/27 14:29:52;;;;;;;11.93;5.53;;;2.20;99.90;;;;;;5006597;28;20402;-81
2022/01/27 14:32:37;;;;;;;7.30;4.73;;;2.30;99.90;;;;;;5004751;28;20945;-81
2022/01/27 14:35:21;;;;;;;9.90;6.00;;;2.40;99.90;;;;;;5004129;28;20487;-81
2022/01/27 14:38:06;;;;;;;8.47;6.27;;;2.40;99.90;;;;;;5020366;28;20474;-82
2022/01/27 14:40:52;;;;;;;10.37;5.40;;;2.30;99.90;;;;;;5020123;28;20410;-81
2022/01/27 14:43:39;;;;;;;10.73;4.93;;;2.10;99.90;;;;;;5021381;28;20409;-82
2022/01/27 14:46:30;;;;;;;11.13;5.70;;;1.90;99.90;;;;;;5018985;28;20518;-82
2022/01/27 14:49:15;;;;;;;11.07;5.43;;;2.00;99.90;;;;;;5016752;28;20537;-82
2022/01/27 14:52:02;;;;;;;11.37;5.50;;;2.20;99.90;;;;;;5000980;28;20435;-82
2022/01/27 14:54:48;;;;;;;11.27;7.27;;;1.90;99.90;;;;;;5003333;28;20446;-81
2022/01/27 14:57:32;;;;;;;11.10;6.30;;;2.10;99.90;;;;;;5017667;28;20515;-80
2022/01/27 15:00:19;;;;;;;11.10;8.67;;;2.30;99.90;;;;;;5020212;28;20462;-81
2022/01/27 15:03:05;;;;;;;12.10;6.87;;;2.50;99.90;;;;;;5014711;28;20401;-81
2022/01/27 15:05:51;;;;;;;12.10;7.73;;;2.50;99.90;;;;;;5019158;28;20466;-80